Time;durP1;ratioP1;P1;durP2;ratioP2;P2;SDS_P1;SDS_P2;PMS_P1;PMS_P2;Temp;Humidity;BMP_temperature;BMP_pressure;BME280_temperature;BME280_humidity;BME280_pressure;Samples;Min_cycle;Max_cycle;Signal;HPM_P1;HPM_P2
2022/09/07 00:01:08;;;;;;;10.13;4.90;;;;;;;16.07;100.00;95431.34;4987659;28;20700;-78
2022/09/07 00:03:34;;;;;;;11.90;5.13;;;;;;;16.02;100.00;95426.19;5000245;28;20042;-77
2022/09/07 00:06:05;;;;;;;10.60;4.53;;;;;;;16.00;100.00;95425.69;4988457;28;20463;-78
2022/09/07 00:08:31;;;;;;;11.10;4.60;;;;;;;16.02;100.00;95431.50;4992691;28;20057;-78
2022/09/07 00:11:03;;;;;;;9.85;4.45;;;;;;;16.02;100.00;95431.50;4993493;28;20625;-78
2022/09/07 00:13:33;;;;;;;8.82;4.50;;;;;;;16.14;100.00;95438.09;4994727;28;20049;-78
2022/09/07 00:16:23;;;;;;;10.75;4.80;;;;;;;16.11;100.00;95440.25;4996554;28;20069;-78
2022/09/07 00:18:48;;;;;;;11.80;4.70;;;;;;;16.15;100.00;95440.44;4990688;28;20058;-78
2022/09/07 00:21:16;;;;;;;14.50;4.72;;;;;;;16.01;100.00;95437.88;4984391;28;20050;-78
2022/09/07 00:23:42;;;;;;;10.60;4.97;;;;;;;15.92;100.00;95437.06;4989517;28;20400;-78
2022/09/07 00:26:12;;;;;;;6.47;3.85;;;;;;;16.07;100.00;95444.63;4993623;28;20046;-78
2022/09/07 00:28:38;;;;;;;10.68;4.15;;;;;;;16.10;100.00;95449.34;4993480;28;20042;-78
2022/09/07 00:31:09;;;;;;;8.05;4.10;;;;;;;16.02;100.00;95442.13;4993121;28;20066;-78
2022/09/07 00:33:34;;;;;;;13.65;4.43;;;;;;;15.99;100.00;95442.72;4981574;28;20034;-78
2022/09/07 00:36:01;;;;;;;12.95;4.72;;;;;;;16.16;100.00;95435.91;4997447;28;20064;-78
2022/09/07 00:38:26;;;;;;;10.35;4.30;;;;;;;16.29;100.00;95440.31;4991239;28;20122;-78
2022/09/07 00:40:52;;;;;;;10.68;5.05;;;;;;;16.21;100.00;95439.22;4982978;28;20046;-79
2022/09/07 00:43:41;;;;;;;9.10;4.38;;;;;;;16.18;100.00;95444.38;4988752;28;20517;-78
2022/09/07 00:46:13;;;;;;;12.20;4.00;;;;;;;16.22;100.00;95440.00;4987946;28;20077;-79
2022/09/07 00:48:51;;;;;;;10.18;4.18;;;;;;;16.28;100.00;95438.78;4991394;28;20058;-78
2022/09/07 00:51:23;;;;;;;8.18;4.68;;;;;;;16.27;100.00;95437.97;4986973;28;20121;-78
2022/09/07 00:53:54;;;;;;;13.68;4.75;;;;;;;16.07;100.00;95441.97;4974801;28;20132;-79
2022/09/07 00:56:25;;;;;;;10.77;4.40;;;;;;;15.96;100.00;95440.69;4992712;28;20412;-78
2022/09/07 00:58:51;;;;;;;8.60;4.13;;;;;;;15.96;100.00;95438.03;4992312;28;20033;-78
2022/09/07 01:01:17;;;;;;;7.75;4.47;;;;;;;15.92;100.00;95437.06;4995516;28;20045;-78
2022/09/07 01:03:48;;;;;;;9.50;4.38;;;;;;;16.00;100.00;95433.66;4991292;28;20030;-79
2022/09/07 01:06:21;;;;;;;10.98;4.55;;;;;;;16.01;100.00;95437.88;4992729;28;20078;-79
2022/09/07 01:08:51;;;;;;;7.78;4.07;;;;;;;16.12;100.00;95435.75;4990031;28;20050;-78
2022/09/07 01:11:19;;;;;;;9.70;4.07;;;;;;;16.11;100.00;95440.25;4971824;28;20516;-79
2022/09/07 01:13:46;;;;;;;11.93;4.40;;;;;;;16.08;100.00;95430.25;4986508;28;20046;-79
2022/09/07 01:16:49;;;;;;;8.05;4.13;;;;;;;16.09;100.00;95434.50;4994589;28;20042;-79
2022/09/07 01:19:42;;;;;;;8.85;4.63;;;;;;;16.13;100.00;95425.91;4992483;28;20034;-78
2022/09/07 01:22:26;;;;;;;9.93;3.92;;;;;;;15.97;100.00;95423.66;4983469;28;20034;-79
2022/09/07 01:25:20;;;;;;;10.13;4.35;;;;;;;15.84;100.00;95429.84;4994347;28;20089;-79
2022/09/07 01:27:52;;;;;;;9.70;4.23;;;;;;;15.55;100.00;95431.84;4973625;28;20054;-79
2022/09/07 01:30:19;;;;;;;9.05;4.47;;;;;;;15.49;100.00;95437.59;4984940;28;20321;-79
2022/09/07 01:33:12;;;;;;;8.63;3.80;;;;;;;15.67;100.00;95452.50;4990007;28;20038;-79
2022/09/07 01:35:57;;;;;;;10.45;4.70;;;;;;;15.72;100.00;95455.03;4989415;28;20073;-79
2022/09/07 01:38:35;;;;;;;10.73;4.57;;;;;;;15.66;100.00;95453.59;4980166;28;20038;-79
2022/09/07 01:41:06;;;;;;;10.02;4.10;;;;;;;15.69;100.00;95455.66;4994439;28;20432;-79
2022/09/07 01:43:44;;;;;;;9.90;4.28;;;;;;;15.61;100.00;95459.03;4985647;28;20077;-79
2022/09/07 01:46:38;;;;;;;8.90;4.07;;;;;;;15.61;100.00;95448.41;4990896;28;20093;-79
2022/09/07 01:49:11;;;;;;;11.73;4.30;;;;;;;15.60;100.00;95446.84;4979126;28;20053;-78
2022/09/07 01:51:43;;;;;;;14.25;4.55;;;;;;;15.68;100.00;95454.06;4992791;28;20046;-78
2022/09/07 01:54:21;;;;;;;6.28;4.05;;;;;;;15.57;100.00;95447.44;4990213;28;20039;-78
2022/09/07 01:56:51;;;;;;;9.90;4.40;;;;;;;15.65;100.00;95446.72;4992956;28;20049;-79
2022/09/07 01:59:23;;;;;;;10.63;4.70;;;;;;;15.70;100.00;95446.59;4984281;28;20042;-78
2022/09/07 02:01:55;;;;;;;9.75;4.20;;;;;;;15.62;100.00;95449.97;4974718;28;20046;-78
2022/09/07 02:04:47;;;;;;;7.55;3.95;;;;;;;15.65;100.00;95449.38;4992783;28;20043;-79
2022/09/07 02:07:44;;;;;;;11.90;4.72;;;;;;;15.55;100.00;95444.31;4985155;28;20425;-79
2022/09/07 02:10:16;;;;;;;7.75;4.22;;;;;;;15.71;100.00;95445.50;4981879;28;20043;-79
2022/09/07 02:12:53;;;;;;;9.63;4.28;;;;;;;15.68;100.00;95459.38;4983953;28;20034;-79
2022/09/07 02:15:31;;;;;;;7.15;3.90;;;;;;;15.77;100.00;95457.56;4983057;28;20053;-79
2022/09/07 02:18:03;;;;;;;8.55;4.22;;;;;;;15.70;100.00;95459.06;5001929;28;20046;-79
2022/09/07 02:20:33;;;;;;;11.25;4.18;;;;;;;15.83;100.00;95460.91;4982772;28;20035;-79
2022/09/07 02:23:03;;;;;;;10.80;3.90;;;;;;;15.85;100.00;95457.94;4989851;28;20054;-79
2022/09/07 02:25:36;;;;;;;12.50;4.40;;;;;;;15.72;100.00;95444.41;4994079;28;20046;-78
2022/09/07 02:28:19;;;;;;;10.35;3.90;;;;;;;15.74;100.00;95446.78;4990769;28;20069;-78
2022/09/07 02:30:45;;;;;;;6.97;3.72;;;;;;;15.88;100.00;95452.03;4990026;28;20121;-79
2022/09/07 02:33:10;;;;;;;10.88;4.05;;;;;;;15.85;100.00;95447.34;4992815;28;20046;-79
2022/09/07 02:35:36;;;;;;;10.70;4.18;;;;;;;15.79;100.00;95438.72;4977038;28;20117;-79
2022/09/07 02:38:05;;;;;;;7.88;3.85;;;;;;;15.72;100.00;95433.81;4991355;28;20118;-79
2022/09/07 02:40:31;;;;;;;8.85;4.30;;;;;;;15.79;100.00;95424.66;4993372;28;20050;-79
2022/09/07 02:43:03;;;;;;;10.43;3.97;;;;;;;15.69;100.00;95429.13;4988718;28;20547;-79
2022/09/07 02:45:37;;;;;;;9.85;3.75;;;;;;;15.82;100.00;95429.38;4995450;28;20113;-79
2022/09/07 02:48:15;;;;;;;7.43;3.88;;;;;;;15.73;100.00;95423.97;4998982;28;20104;-78
2022/09/07 02:51:05;;;;;;;6.57;3.38;;;;;;;15.68;100.00;95427.53;4985818;28;20042;-79
2022/09/07 02:53:35;;;;;;;9.93;3.78;;;;;;;15.54;100.00;95424.97;4994733;28;20038;-79
2022/09/07 02:56:07;;;;;;;6.82;3.70;;;;;;;15.59;100.00;95429.38;4994476;28;20501;-79
2022/09/07 02:58:49;;;;;;;7.75;3.45;;;;;;;15.59;100.00;95429.38;4997128;28;20034;-78
2022/09/07 03:01:39;;;;;;;6.82;3.58;;;;;;;15.61;100.00;95429.84;4986360;28;20050;-79
2022/09/07 03:04:17;;;;;;;12.23;4.18;;;;;;;15.67;100.00;95436.56;4991816;28;20034;-78
2022/09/07 03:07:09;;;;;;;10.35;4.10;;;;;;;15.58;100.00;95427.78;4993878;28;20487;-79
2022/09/07 03:09:42;;;;;;;6.97;3.50;;;;;;;15.57;100.00;95431.53;4993059;28;20038;-79
2022/09/07 03:12:09;;;;;;;9.30;3.75;;;;;;;15.30;100.00;95412.03;4991937;28;20050;-79
2022/09/07 03:14:39;;;;;;;9.73;3.97;;;;;;;15.41;100.00;95418.66;4995455;28;20088;-79
2022/09/07 03:17:05;;;;;;;6.70;3.50;;;;;;;15.54;100.00;95416.22;4993798;28;20043;-79
2022/09/07 03:19:30;;;;;;;8.43;3.80;;;;;;;15.62;100.00;95423.47;4996938;28;20415;-79
2022/09/07 03:21:56;;;;;;;11.38;3.90;;;;;;;15.59;100.00;95408.16;4988565;28;20105;-79
2022/09/07 03:24:21;;;;;;;6.70;3.65;;;;;;;15.68;100.00;95416.94;4992700;28;20038;-79
2022/09/07 03:26:50;;;;;;;12.00;3.70;;;;;;;15.75;100.00;95427.13;4993569;28;20034;-79
2022/09/07 03:29:16;;;;;;;9.75;4.78;;;;;;;15.70;100.00;95425.38;4993949;28;20090;-78
2022/09/07 03:31:42;;;;;;;6.72;4.38;;;;;;;15.68;100.00;95437.38;4993092;28;20038;-78
2022/09/07 03:34:08;;;;;;;8.13;3.70;;;;;;;15.60;100.00;95436.22;4995602;28;20488;-78
2022/09/07 03:36:34;;;;;;;8.20;3.53;;;;;;;15.60;100.00;95441.53;4995812;28;20047;-78
2022/09/07 03:39:00;;;;;;;6.90;3.83;;;;;;;15.72;100.00;95444.41;4990263;28;20103;-79
2022/09/07 03:41:26;;;;;;;7.50;3.70;;;;;;;15.75;100.00;95437.72;4975864;28;20043;-78
2022/09/07 03:43:52;;;;;;;9.00;4.13;;;;;;;15.63;100.00;95440.94;4975978;28;20077;-78
2022/09/07 03:46:18;;;;;;;9.30;3.78;;;;;;;15.69;100.00;95439.72;4975593;28;20130;-79
2022/09/07 03:48:45;;;;;;;10.57;4.05;;;;;;;15.64;100.00;95437.19;4993089;28;20038;-79
2022/09/07 03:51:13;;;;;;;9.05;3.55;;;;;;;15.52;100.00;95434.31;4981755;28;20114;-79
2022/09/07 03:53:41;;;;;;;8.43;3.60;;;;;;;15.54;100.00;95442.75;4991145;28;20780;-78
2022/09/07 03:56:08;;;;;;;7.22;3.67;;;;;;;15.62;100.00;95438.59;4995537;28;20257;-79
2022/09/07 03:58:34;;;;;;;9.60;3.60;;;;;;;15.55;100.00;95441.66;4992500;28;20038;-78
2022/09/07 04:01:06;;;;;;;7.97;3.60;;;;;;;15.45;100.00;95434.72;4973693;28;20046;-79
2022/09/07 04:03:32;;;;;;;5.40;3.70;;;;;;;15.41;100.00;95444.38;4991093;28;20034;-79
2022/09/07 04:05:59;;;;;;;5.30;3.90;;;;;;;15.32;100.00;95443.53;4992150;28;20045;-79
2022/09/07 04:08:29;;;;;;;8.35;3.67;;;;;;;15.44;100.00;95443.75;4984952;28;20047;-79
2022/09/07 04:10:56;;;;;;;7.18;3.50;;;;;;;15.54;100.00;95442.75;4990586;28;20050;-79
2022/09/07 04:13:22;;;;;;;7.95;3.58;;;;;;;15.59;100.00;95450.59;4990951;28;20047;-79
2022/09/07 04:15:47;;;;;;;7.03;3.67;;;;;;;15.59;100.00;95450.59;4992478;28;20038;-79
2022/09/07 04:18:13;;;;;;;9.02;4.22;;;;;;;15.54;100.00;95453.34;4992686;28;20566;-78
2022/09/07 04:20:38;;;;;;;6.75;3.80;;;;;;;15.57;100.00;95447.44;4991593;28;20522;-79
2022/09/07 04:23:04;;;;;;;7.15;3.40;;;;;;;15.67;100.00;95452.50;4995343;28;20041;-79
2022/09/07 04:25:29;;;;;;;10.43;3.72;;;;;;;15.66;100.00;95456.25;4999225;28;20493;-79
2022/09/07 04:27:55;;;;;;;10.20;3.97;;;;;;;15.63;100.00;95462.16;4991297;28;20057;-79
2022/09/07 04:30:21;;;;;;;8.05;3.70;;;;;;;15.63;100.00;95462.16;4990976;28;20417;-79
2022/09/07 04:32:46;;;;;;;6.22;3.78;;;;;;;15.54;100.00;95454.16;4988664;28;20038;-79
2022/09/07 04:35:12;;;;;;;7.75;3.53;;;;;;;15.54;100.00;95453.34;4992457;28;20042;-78
2022/09/07 04:37:38;;;;;;;8.55;4.00;;;;;;;15.73;100.00;95459.25;4991391;28;20042;-78
2022/09/07 04:40:04;;;;;;;8.80;4.07;;;;;;;15.75;100.00;95453.66;4977635;28;20046;-78
2022/09/07 04:42:29;;;;;;;7.88;3.70;;;;;;;15.76;100.00;95466.59;4991285;28;20637;-78
2022/09/07 04:44:55;;;;;;;6.57;3.30;;;;;;;15.77;100.00;95456.78;4993834;28;20539;-78
2022/09/07 04:47:21;;;;;;;7.75;3.80;;;;;;;15.74;100.00;95458.16;4990920;28;20527;-78
2022/09/07 04:49:50;;;;;;;7.78;3.78;;;;;;;15.75;100.00;95459.72;4991405;28;20042;-78
2022/09/07 04:52:16;;;;;;;8.32;3.83;;;;;;;15.75;100.00;95454.41;4990140;28;20053;-78
2022/09/07 04:54:42;;;;;;;8.02;3.50;;;;;;;15.76;100.00;95458.66;4991472;28;20043;-78
2022/09/07 04:57:09;;;;;;;6.95;3.58;;;;;;;15.72;100.00;95460.34;4993725;28;20038;-78
2022/09/07 04:59:35;;;;;;;9.90;3.60;;;;;;;15.72;100.00;95460.34;4975463;28;20050;-78
2022/09/07 05:02:00;;;;;;;7.63;3.25;;;;;;;15.80;100.00;95466.03;4990060;28;20041;-79
2022/09/07 05:04:26;;;;;;;6.30;3.45;;;;;;;15.71;100.00;95461.41;4997171;28;20052;-78
2022/09/07 05:06:52;;;;;;;5.88;3.40;;;;;;;15.81;100.00;95472.91;4983110;28;20051;-79
2022/09/07 05:09:18;;;;;;;8.13;3.90;;;;;;;15.70;100.00;95461.72;4989503;28;20068;-78
2022/09/07 05:11:43;;;;;;;9.77;3.58;;;;;;;15.74;100.00;95463.47;4991015;28;20062;-78
2022/09/07 05:14:09;;;;;;;7.60;3.70;;;;;;;15.70;100.00;95462.53;4990893;28;20042;-78
2022/09/07 05:16:35;;;;;;;9.13;3.65;;;;;;;15.72;100.00;95465.66;4991785;28;20034;-78
2022/09/07 05:19:03;;;;;;;7.78;3.50;;;;;;;15.79;100.00;95464.44;4990808;28;20081;-79
2022/09/07 05:21:32;;;;;;;10.05;3.97;;;;;;;15.91;100.00;95467.34;4977980;28;20107;-79
2022/09/07 05:23:58;;;;;;;8.10;3.50;;;;;;;15.94;100.00;95472.03;4984851;28;20072;-79
2022/09/07 05:26:26;;;;;;;6.30;3.42;;;;;;;15.96;100.00;95464.56;4990281;28;20038;-79
2022/09/07 05:28:53;;;;;;;8.35;3.75;;;;;;;16.06;100.00;95459.00;4990037;28;20046;-79
2022/09/07 05:31:21;;;;;;;7.38;3.45;;;;;;;16.09;100.00;95474.31;4989482;28;20160;-79
2022/09/07 05:33:51;;;;;;;10.43;3.20;;;;;;;16.08;100.00;95462.13;4995405;28;20050;-78
2022/09/07 05:36:17;;;;;;;6.03;3.28;;;;;;;16.18;100.00;95470.91;4973761;28;20049;-79
2022/09/07 05:38:43;;;;;;;8.38;3.33;;;;;;;16.09;100.00;95474.31;4994264;28;20046;-78
2022/09/07 05:41:19;;;;;;;7.45;3.90;;;;;;;16.14;100.00;95485.88;4972381;28;20121;-79
2022/09/07 05:43:46;;;;;;;10.57;4.10;;;;;;;16.08;100.00;95493.97;4984228;28;20049;-79
2022/09/07 05:46:12;;;;;;;9.15;3.90;;;;;;;16.16;100.00;95499.63;4994143;28;20715;-78
2022/09/07 05:48:38;;;;;;;9.45;4.28;;;;;;;16.20;100.00;95505.91;4991554;28;20045;-77
2022/09/07 05:51:04;;;;;;;9.05;3.72;;;;;;;16.31;100.00;95507.22;4988383;28;20039;-77
2022/09/07 05:53:33;;;;;;;10.05;3.47;;;;;;;16.48;100.00;95505.69;4989728;28;20042;-78
2022/09/07 05:55:59;;;;;;;5.95;3.08;;;;;;;16.77;100.00;95508.63;4992145;28;20050;-79
2022/09/07 05:58:26;;;;;;;6.65;3.45;;;;;;;16.86;100.00;95521.16;4990108;28;20038;-79
2022/09/07 06:00:52;;;;;;;7.40;3.45;;;;;;;16.80;100.00;95523.94;4970369;28;20107;-79
2022/09/07 06:03:17;;;;;;;15.50;4.25;;;;;;;16.73;100.00;95512.97;4993853;28;20034;-79
2022/09/07 06:05:43;;;;;;;11.40;3.80;;;;;;;16.76;100.00;95515.00;4992223;28;20145;-79
2022/09/07 06:08:08;;;;;;;16.92;4.03;;;;;;;16.73;100.00;95528.91;4981834;28;20057;-80
2022/09/07 06:10:37;;;;;;;8.90;3.55;;;;;;;16.66;100.00;95525.94;4990102;28;20581;-79
2022/09/07 06:13:03;;;;;;;7.13;3.38;;;;;;;16.58;100.00;95524.03;5001645;28;20038;-79
2022/09/07 06:15:32;;;;;;;11.70;3.75;;;;;;;16.51;100.00;95521.03;4994254;28;20101;-79
2022/09/07 06:17:58;;;;;;;8.23;3.60;;;;;;;16.36;100.00;95525.66;4999796;28;20042;-79
2022/09/07 06:20:23;;;;;;;10.05;3.80;;;;;;;16.11;100.00;95524.44;4991119;28;20049;-79
2022/09/07 06:22:49;;;;;;;7.40;3.72;;;;;;;16.45;100.00;95539.75;4993772;28;20050;-79
2022/09/07 06:25:14;;;;;;;8.98;3.97;;;;;;;16.45;100.00;95539.75;4993793;28;20039;-79
2022/09/07 06:27:40;;;;;;;10.55;3.70;;;;;;;16.45;100.00;95549.63;4994000;28;20833;-79
2022/09/07 06:30:06;;;;;;;10.23;3.70;;;;;;;16.47;100.00;95551.97;4990114;28;20079;-79
2022/09/07 06:32:35;;;;;;;6.28;3.40;;;;;;;16.69;100.00;95545.78;4993464;28;20047;-79
2022/09/07 06:35:01;;;;;;;7.80;3.90;;;;;;;16.84;100.00;95539.25;4989623;28;20270;-80
2022/09/07 06:37:26;;;;;;;7.72;3.95;;;;;;;16.75;100.00;95542.69;4997209;28;20038;-80
2022/09/07 06:39:52;;;;;;;8.65;3.70;;;;;;;16.79;100.00;95542.84;4986773;28;20046;-80
2022/09/07 06:42:17;;;;;;;11.73;3.47;;;;;;;16.91;100.00;95542.28;4991096;28;20580;-80
2022/09/07 06:44:43;;;;;;;8.05;3.70;;;;;;;17.07;100.00;95543.44;4989054;28;20038;-80
2022/09/07 06:47:09;;;;;;;7.22;3.50;;;;;;;17.16;100.00;95545.34;4992995;28;20042;-79
2022/09/07 06:49:35;;;;;;;5.70;3.38;;;;;;;17.30;100.00;95546.75;4992685;28;20034;-79
2022/09/07 06:52:00;;;;;;;6.63;3.03;;;;;;;17.57;100.00;95547.56;4990243;28;20065;-77
2022/09/07 06:54:26;;;;;;;6.53;2.97;;;;;;;17.62;100.00;95547.38;5000278;28;20124;-78
2022/09/07 06:56:51;;;;;;;9.68;2.60;;;;;;;17.80;100.00;95545.50;4994221;28;20042;-78
2022/09/07 06:59:17;;;;;;;10.85;3.20;;;;;;;17.71;100.00;95549.28;4989811;28;20058;-78
2022/09/07 07:01:42;;;;;;;5.78;2.85;;;;;;;17.60;100.00;95554.91;4997552;28;20046;-78
2022/09/07 07:04:08;;;;;;;9.07;2.97;;;;;;;17.80;100.00;95548.19;4996570;28;20065;-78
2022/09/07 07:06:38;;;;;;;10.93;3.20;;;;;;;17.82;100.00;95551.28;4991453;28;20653;-78
2022/09/07 07:09:05;;;;;;;8.23;2.92;;;;;;;18.12;100.00;95559.44;4990758;28;20050;-79
2022/09/07 07:11:31;;;;;;;5.57;3.10;;;;;;;18.24;100.00;95566.00;5001155;28;20049;-78
2022/09/07 07:13:58;;;;;;;7.88;3.13;;;;;;;18.21;100.00;95555.97;4974496;28;20062;-78
2022/09/07 07:16:24;;;;;;;7.43;2.85;;;;;;;18.42;100.00;95556.88;4990574;28;20424;-78
2022/09/07 07:18:54;;;;;;;6.90;2.25;;;;;;;18.77;100.00;95554.06;4993252;28;20078;-78
2022/09/07 07:21:20;;;;;;;6.35;2.55;;;;;;;18.86;100.00;95557.50;4975137;28;20069;-77
2022/09/07 07:23:49;;;;;;;8.15;2.78;;;;;;;18.86;100.00;95565.50;4996014;28;20073;-78
2022/09/07 07:26:21;;;;;;;5.60;2.60;;;;;;;18.92;100.00;95563.44;4995104;28;20054;-78
2022/09/07 07:28:50;;;;;;;6.72;3.47;;;;;;;19.21;100.00;95565.31;4993671;28;20058;-78
2022/09/07 07:31:19;;;;;;;4.22;2.20;;;;;;;19.47;100.00;95561.69;4995140;28;20398;-78
2022/09/07 07:33:46;;;;;;;5.22;2.47;;;;;;;19.64;100.00;95565.34;4993607;28;20542;-78
2022/09/07 07:36:23;;;;;;;5.40;2.47;;;;;;;19.74;100.00;95564.97;4996423;28;20121;-80
2022/09/07 07:38:51;;;;;;;4.30;2.42;;;;;;;19.85;100.00;95570.69;4974535;28;20050;-80
2022/09/07 07:41:22;;;;;;;7.30;2.70;;;;;;;20.02;100.00;95569.78;4986100;28;20502;-80
2022/09/07 07:43:55;;;;;;;3.47;2.08;;;;;;;20.22;100.00;95574.28;4990980;28;20038;-79
2022/09/07 07:46:23;;;;;;;10.23;2.58;;;;;;;20.27;100.00;95572.53;4998414;28;20062;-79
2022/09/07 07:48:49;;;;;;;6.07;2.40;;;;;;;20.30;100.00;95569.19;4996203;28;20056;-79
2022/09/07 07:51:15;;;;;;;3.95;2.30;;;;;;;20.39;100.00;95570.66;4971705;28;20064;-78
2022/09/07 07:53:41;;;;;;;5.13;2.30;;;;;;;20.38;100.00;95566.41;4995371;28;20118;-78
2022/09/07 07:56:08;;;;;;;6.35;2.42;;;;;;;20.44;100.00;95575.00;4994345;28;20089;-81
2022/09/07 07:58:35;;;;;;;9.55;2.50;;;;;;;20.43;100.00;95568.13;4991864;28;20034;-79
2022/09/07 08:01:03;;;;;;;7.43;2.67;;;;;;;20.38;100.00;95571.00;4992388;28;20857;-78
2022/09/07 08:03:29;;;;;;;6.43;2.67;;;;;;;20.45;100.00;95571.22;4996072;28;20109;-78
2022/09/07 08:05:55;;;;;;;4.25;2.40;;;;;;;20.35;100.00;95577.00;4994910;28;20493;-79
2022/09/07 08:08:22;;;;;;;4.03;2.22;;;;;;;20.47;100.00;95569.00;4989682;28;20096;-78
2022/09/07 08:10:48;;;;;;;7.95;2.38;;;;;;;20.42;100.00;95561.22;4992808;28;20171;-78
2022/09/07 08:13:14;;;;;;;5.53;2.47;;;;;;;20.36;100.00;95567.88;5001522;28;20594;-80
2022/09/07 08:15:43;;;;;;;5.20;2.67;;;;;;;20.35;100.00;95567.09;4996650;28;20042;-79
2022/09/07 08:18:11;;;;;;;7.28;2.70;;;;;;;20.36;100.00;95563.31;4994511;28;20038;-82
2022/09/07 08:20:39;;;;;;;5.53;2.95;;;;;;;20.45;100.00;95565.13;4975515;28;20038;-83
2022/09/07 08:23:08;;;;;;;8.80;3.30;;;;;;;20.45;100.00;95559.78;4981943;28;20049;-81
2022/09/07 08:25:34;;;;;;;4.18;2.22;;;;;;;20.47;100.00;95562.88;4993283;28;20070;-79
2022/09/07 08:28:00;;;;;;;6.22;2.58;;;;;;;20.56;100.00;95567.03;4990800;28;20070;-78
2022/09/07 08:30:26;;;;;;;7.53;2.60;;;;;;;20.51;100.00;95561.88;4987732;28;20042;-79
2022/09/07 08:32:51;;;;;;;7.40;2.78;;;;;;;20.67;100.00;95558.59;4994962;28;20041;-78
2022/09/07 08:35:17;;;;;;;4.55;2.60;;;;;;;20.71;100.00;95562.94;4989255;28;20061;-77
2022/09/07 08:37:42;;;;;;;4.25;2.70;;;;;;;20.70;100.00;95555.25;4991030;28;20157;-83
2022/09/07 08:40:15;;;;;;;10.60;2.75;;;;;;;20.93;100.00;95553.72;4988547;28;20047;-79
2022/09/07 08:43:11;;;;;;;7.38;2.75;;;;;;;20.86;100.00;95556.16;4989968;28;20042;-78
2022/09/07 08:45:44;;;;;;;11.30;3.63;;;;;;;20.90;100.00;95558.94;4990569;28;20042;-78
2022/09/07 08:48:15;;;;;;;8.02;3.30;;;;;;;20.92;100.00;95557.50;4988244;28;20061;-79
2022/09/07 08:50:53;;;;;;;5.57;2.60;;;;;;;21.04;100.00;95558.59;4989372;28;20050;-78
2022/09/07 08:53:21;;;;;;;6.20;2.90;;;;;;;21.05;100.00;95554.81;4993875;28;20046;-79
2022/09/07 08:56:09;;;;;;;8.02;2.83;;;;;;;21.15;100.00;95549.00;4985013;28;20053;-78
2022/09/07 08:58:49;;;;;;;10.23;2.95;;;;;;;21.17;100.00;95552.13;4991300;28;20751;-78
2022/09/07 09:01:30;;;;;;;7.40;2.90;;;;;;;21.25;100.00;95532.50;4984192;28;20073;-77
2022/09/07 09:03:56;;;;;;;7.72;2.67;;;;;;;21.23;100.00;95550.78;4998603;28;20045;-77
2022/09/07 09:06:46;;;;;;;9.65;2.55;;;;;;;21.42;100.00;95541.38;4992425;28;20555;-79
2022/09/07 09:09:45;;;;;;;6.28;2.80;;;;;;;21.34;100.00;95539.63;5106597;27;20392;-80
2022/09/07 09:12:23;;;;;;;8.05;3.38;;;;;;;21.59;100.00;95541.16;5109643;28;20051;-80
2022/09/07 09:15:13;;;;;;;7.57;2.85;;;;;;;21.69;100.00;95544.47;5107482;28;20299;-78
2022/09/07 09:17:44;;;;;;;5.40;2.80;;;;;;;21.94;100.00;95539.81;5110686;28;20399;-76
2022/09/07 09:20:28;;;;;;;8.68;3.10;;;;;;;22.07;100.00;95533.25;5100095;28;20071;-76
2022/09/07 09:23:01;;;;;;;10.70;3.13;;;;;;;22.16;100.00;95535.78;5098029;28;20040;-76
2022/09/07 09:25:35;;;;;;;9.07;2.58;;;;;;;22.27;93.76;95531.47;5110287;28;20058;-75
2022/09/07 09:28:01;;;;;;;6.97;2.90;;;;;;;22.41;98.03;95535.66;5107978;27;20044;-77
2022/09/07 09:30:30;;;;;;;6.10;2.60;;;;;;;22.22;100.00;95526.34;5106354;28;20554;-77
2022/09/07 09:33:19;;;;;;;7.47;2.63;;;;;;;22.56;99.34;95526.84;5106210;28;20100;-77
2022/09/07 09:35:50;;;;;;;6.18;2.80;;;;;;;22.61;91.83;95518.56;5106319;28;20040;-76
2022/09/07 09:38:42;;;;;;;4.55;2.00;;;;;;;22.83;90.98;95519.81;5113628;27;20126;-76
2022/09/07 09:41:12;;;;;;;4.10;2.22;;;;;;;23.01;86.84;95517.56;5106586;27;20043;-76
2022/09/07 09:43:45;;;;;;;7.00;2.38;;;;;;;23.30;88.16;95518.22;5115507;27;20040;-76
2022/09/07 09:46:22;;;;;;;10.15;2.72;;;;;;;23.33;85.98;95514.81;5108914;28;20050;-76
2022/09/07 09:49:04;;;;;;;5.50;2.40;;;;;;;23.55;82.82;95515.25;5120925;27;20040;-76
2022/09/07 09:51:41;;;;;;;4.72;2.40;;;;;;;23.75;82.53;95520.63;5110791;28;20031;-77
2022/09/07 09:54:24;;;;;;;6.32;2.38;;;;;;;23.74;79.65;95508.34;5108624;27;20126;-76
2022/09/07 09:56:51;;;;;;;7.20;2.50;;;;;;;24.13;79.27;95505.63;5109262;28;20042;-77
2022/09/07 09:59:16;;;;;;;6.20;2.33;;;;;;;24.47;77.69;95503.13;5103486;28;20073;-78
2022/09/07 10:01:44;;;;;;;6.13;2.40;;;;;;;24.69;77.79;95502.34;5107368;28;20040;-78
2022/09/07 10:04:32;;;;;;;4.47;2.20;;;;;;;24.63;73.76;95506.50;5104920;28;20044;-77
2022/09/07 10:07:19;;;;;;;6.32;2.10;;;;;;;24.36;76.31;95506.41;5118809;28;20051;-78
2022/09/07 10:09:51;;;;;;;5.30;2.15;;;;;;;24.25;74.53;95502.78;5099065;28;20043;-81
2022/09/07 10:12:25;;;;;;;5.80;2.38;;;;;;;24.18;75.88;95508.78;5100073;28;20126;-80
2022/09/07 10:14:52;;;;;;;5.93;2.70;;;;;;;24.09;75.77;95499.41;5113548;28;20047;-81
2022/09/07 10:17:28;;;;;;;6.22;2.50;;;;;;;24.17;78.40;95501.09;5114683;27;20516;-78
2022/09/07 10:20:19;;;;;;;5.95;2.40;;;;;;;23.97;78.24;95505.72;5093112;28;20043;-77
2022/09/07 10:22:51;;;;;;;5.78;2.30;;;;;;;23.93;77.49;95512.94;5090805;28;20071;-79
2022/09/07 10:25:26;;;;;;;5.55;2.40;;;;;;;23.80;78.52;95514.97;5090628;28;20549;-79
2022/09/07 10:28:04;;;;;;;7.38;2.60;;;;;;;23.53;79.17;95515.63;5099503;28;20405;-79
2022/09/07 10:31:05;;;;;;;4.20;2.40;;;;;;;23.70;81.13;95506.38;5091630;28;20044;-80
2022/09/07 10:33:45;;;;;;;8.40;3.20;;;;;;;23.76;78.26;95514.13;5098799;28;20054;-80
2022/09/07 10:36:19;;;;;;;6.72;2.50;;;;;;;23.78;78.29;95514.56;5092350;28;20410;-81
2022/09/07 10:39:01;;;;;;;8.95;2.83;;;;;;;23.83;80.13;95508.88;5098058;28;20047;-83
2022/09/07 10:42:10;;;;;;;7.57;2.90;;;;;;;24.00;79.30;95513.84;5093300;28;20039;-79
2022/09/07 10:45:04;;;;;;;6.03;2.67;;;;;;;23.91;79.16;95505.22;5100351;28;20120;-79
2022/09/07 10:48:07;;;;;;;10.65;3.00;;;;;;;23.86;80.73;95498.25;5093270;28;20085;-77
2022/09/07 10:50:52;;;;;;;6.78;3.00;;;;;;;23.92;78.23;95485.28;5089131;28;20100;-77
2022/09/07 10:54:06;;;;;;;8.18;2.60;;;;;;;23.87;81.00;95499.00;5088082;28;20043;-77
2022/09/07 10:56:38;;;;;;;5.18;2.75;;;;;;;24.14;79.61;95480.31;5094471;28;20097;-78
2022/09/07 10:59:45;;;;;;;10.55;3.22;;;;;;;24.31;80.48;95485.19;5098559;28;20051;-80
2022/09/07 11:02:52;;;;;;;8.23;3.00;;;;;;;24.49;81.50;95473.94;5085230;28;20193;-78
2022/09/07 11:05:27;;;;;;;8.90;3.03;;;;;;;24.89;78.19;95475.34;5076544;28;20056;-79
2022/09/07 11:08:22;;;;;;;8.18;3.13;;;;;;;24.82;76.30;95461.78;5091217;28;20086;-78
2022/09/07 11:11:16;;;;;;;7.90;3.20;;;;;;;25.21;76.36;95458.84;5097895;28;20043;-78
2022/09/07 11:13:44;;;;;;;6.53;3.03;;;;;;;25.57;73.84;95456.63;5095996;28;20055;-80
2022/09/07 11:16:15;;;;;;;5.10;2.75;;;;;;;25.72;72.17;95461.03;5106815;28;20047;-78
2022/09/07 11:19:01;;;;;;;9.52;3.13;;;;;;;25.89;71.78;95453.50;5095504;28;20048;-80
2022/09/07 11:21:34;;;;;;;8.18;3.08;;;;;;;26.11;72.66;95449.88;5079524;28;20040;-79
2022/09/07 11:24:11;;;;;;;6.03;3.15;;;;;;;26.21;70.75;95443.03;5084695;28;20044;-79
2022/09/07 11:26:44;;;;;;;9.07;3.20;;;;;;;26.30;69.48;95445.41;5078045;28;20036;-79
2022/09/07 11:29:20;;;;;;;8.55;3.25;;;;;;;26.33;68.79;95439.28;5082838;28;20068;-78
2022/09/07 11:32:12;;;;;;;10.38;3.22;;;;;;;26.13;69.00;95437.97;5100185;28;20410;-80
2022/09/07 11:34:52;;;;;;;9.25;3.20;;;;;;;26.86;67.86;95431.97;5086389;28;20046;-79
2022/09/07 11:37:33;;;;;;;9.10;3.20;;;;;;;26.13;69.07;95427.94;5096969;28;20037;-77
2022/09/07 11:40:13;;;;;;;6.82;2.95;;;;;;;26.16;70.84;95426.41;5103025;28;20036;-79
2022/09/07 11:42:54;;;;;;;8.73;3.35;;;;;;;25.94;69.63;95434.28;5085110;28;20085;-79
2022/09/07 11:45:32;;;;;;;9.93;3.40;;;;;;;26.32;69.52;95432.34;5088979;28;20097;-78
2022/09/07 11:48:09;;;;;;;8.15;3.58;;;;;;;26.64;66.41;95431.81;5096726;28;20507;-79